Time;durP1;ratioP1;P1;durP2;ratioP2;P2;SDS_P1;SDS_P2;PMS_P1;PMS_P2;Temp;Humidity;BMP_temperature;BMP_pressure;BME280_temperature;BME280_humidity;BME280_pressure;Samples;Min_cycle;Max_cycle;Signal;HPM_P1;HPM_P2
2023/10/26 00:00:27;;;;;;;0.60;0.60;;;;;;;;;;20999984;28;20246;-69
2023/10/26 00:10:30;;;;;;;0.70;0.70;;;;;;;;;;20999030;28;20249;-69
2023/10/26 00:20:32;;;;;;;0.77;0.77;;;;;;;;;;20998708;28;20237;-69
2023/10/26 00:30:34;;;;;;;1.73;0.90;;;;;;;;;;20997723;28;20213;-68
2023/10/26 00:40:36;;;;;;;0.63;0.63;;;;;;;;;;20997149;28;20241;-68
2023/10/26 00:50:38;;;;;;;0.80;0.80;;;;;;;;;;20996850;28;20651;-70
2023/10/26 01:00:40;;;;;;;2.30;0.73;;;;;;;;;;20995716;28;20233;-68
2023/10/26 01:10:42;;;;;;;3.33;1.10;;;;;;;;;;20995573;28;20240;-68
2023/10/26 01:20:45;;;;;;;1.20;1.10;;;;;;;;;;20995364;28;20245;-68
2023/10/26 01:30:47;;;;;;;2.27;1.20;;;;;;;;;;20994710;28;20568;-68
2023/10/26 01:40:49;;;;;;;1.20;1.10;;;;;;;;;;20993824;28;20267;-68
2023/10/26 01:50:51;;;;;;;1.20;1.10;;;;;;;;;;20994269;28;20248;-68
2023/10/26 02:00:53;;;;;;;1.07;1.00;;;;;;;;;;20968535;28;20228;-68
2023/10/26 02:10:56;;;;;;;1.37;1.27;;;;;;;;;;20911508;28;20631;-68
2023/10/26 02:21:00;;;;;;;1.50;1.20;;;;;;;;;;20924051;28;20661;-67
2023/10/26 02:31:02;;;;;;;1.17;1.10;;;;;;;;;;20924311;28;20573;-68
2023/10/26 02:41:05;;;;;;;1.50;1.40;;;;;;;;;;20923478;28;20248;-68
2023/10/26 02:51:07;;;;;;;1.63;1.40;;;;;;;;;;20923215;28;20300;-68
2023/10/26 03:01:09;;;;;;;1.40;1.30;;;;;;;;;;20921725;28;20329;-67
2023/10/26 03:11:11;;;;;;;2.00;1.30;;;;;;;;;;20921393;28;20204;-68
2023/10/26 03:21:16;;;;;;;1.20;1.10;;;;;;;;;;20920880;28;20547;-67
2023/10/26 03:31:18;;;;;;;4.97;1.50;;;;;;;;;;20919282;28;20216;-68
2023/10/26 03:41:20;;;;;;;2.67;1.50;;;;;;;;;;20918896;28;20328;-68
2023/10/26 03:51:25;;;;;;;4.00;2.97;;;;;;;;;;20918777;28;20205;-68
2023/10/26 04:01:27;;;;;;;2.77;2.20;;;;;;;;;;20917363;28;20244;-68
2023/10/26 04:11:29;;;;;;;1.50;1.40;;;;;;;;;;20916570;28;20204;-68
2023/10/26 04:21:31;;;;;;;1.90;1.50;;;;;;;;;;20916186;28;20240;-68
2023/10/26 04:31:33;;;;;;;1.70;1.60;;;;;;;;;;20915417;28;20210;-67
2023/10/26 04:41:36;;;;;;;2.13;1.63;;;;;;;;;;20914136;28;20271;-68
2023/10/26 04:51:38;;;;;;;2.53;2.10;;;;;;;;;;20912831;28;20580;-67
2023/10/26 05:01:40;;;;;;;2.00;1.70;;;;;;;;;;20911281;28;20740;-68
2023/10/26 05:11:45;;;;;;;2.57;1.60;;;;;;;;;;20912583;28;20656;-68
2023/10/26 05:21:47;;;;;;;6.60;2.47;;;;;;;;;;20912159;28;20241;-67
2023/10/26 05:31:49;;;;;;;2.13;1.70;;;;;;;;;;20911907;28;20299;-67
2023/10/26 05:41:52;;;;;;;2.20;2.00;;;;;;;;;;20911143;28;20235;-67
2023/10/26 05:51:57;;;;;;;1.80;1.70;;;;;;;;;;20915813;28;20241;-67
2023/10/26 06:01:59;;;;;;;2.10;1.90;;;;;;;;;;20906032;28;20242;-67
2023/10/26 06:12:01;;;;;;;1.73;1.60;;;;;;;;;;20924861;28;20262;-67
2023/10/26 06:22:04;;;;;;;2.93;1.70;;;;;;;;;;20922878;28;20240;-67
2023/10/26 06:32:06;;;;;;;2.70;1.83;;;;;;;;;;20924420;28;20207;-67
2023/10/26 06:42:08;;;;;;;3.07;2.37;;;;;;;;;;20923202;28;20237;-67
2023/10/26 06:52:10;;;;;;;2.70;2.47;;;;;;;;;;20922553;28;20295;-67
2023/10/26 07:02:13;;;;;;;2.70;2.10;;;;;;;;;;20921165;28;20237;-67
2023/10/26 07:12:15;;;;;;;3.97;2.10;;;;;;;;;;20921100;28;20300;-67
2023/10/26 07:22:17;;;;;;;3.93;2.17;;;;;;;;;;20920105;28;20234;-67
2023/10/26 07:32:20;;;;;;;2.93;2.30;;;;;;;;;;20920023;28;20210;-67
2023/10/26 07:42:22;;;;;;;3.60;2.57;;;;;;;;;;20900777;28;20566;-67
2023/10/26 07:52:24;;;;;;;2.80;2.10;;;;;;;;;;20899976;28;20215;-67
2023/10/26 08:02:26;;;;;;;3.17;2.00;;;;;;;;;;20916827;28;20251;-67
2023/10/26 08:12:31;;;;;;;2.70;1.57;;;;;;;;;;20916407;28;20254;-67
2023/10/26 08:22:33;;;;;;;4.63;1.80;;;;;;;;;;20915525;28;20694;-67
2023/10/26 08:32:36;;;;;;;2.37;1.80;;;;;;;;;;20914450;28;20207;-67
2023/10/26 08:42:43;;;;;;;1.70;1.60;;;;;;;;;;20913325;28;20239;-67
2023/10/26 08:52:45;;;;;;;1.87;1.67;;;;;;;;;;20913102;28;20211;-67
2023/10/26 09:02:51;;;;;;;1.90;1.67;;;;;;;;;;20912409;28;20247;-67
2023/10/26 09:13:01;;;;;;;3.33;1.60;;;;;;;;;;20911797;28;20219;-67
2023/10/26 09:23:04;;;;;;;2.47;1.50;;;;;;;;;;20911068;28;20642;-67
2023/10/26 09:33:22;;;;;;;1.30;1.20;;;;;;;;;;20933371;28;20214;-67
2023/10/26 09:43:24;;;;;;;2.53;1.70;;;;;;;;;;20910992;28;20641;-67
2023/10/26 09:53:27;;;;;;;1.30;1.20;;;;;;;;;;20910159;28;20262;-67
2023/10/26 10:03:43;;;;;;;1.67;1.30;;;;;;;;;;20909746;28;20256;-67
2023/10/26 10:13:46;;;;;;;1.60;1.50;;;;;;;;;;20909580;28;20258;-67
2023/10/26 10:23:48;;;;;;;1.47;1.30;;;;;;;;;;20909469;28;20293;-67
2023/10/26 10:34:00;;;;;;;4.07;2.80;;;;;;;;;;20909210;28;20208;-67
2023/10/26 10:44:03;;;;;;;7.27;5.73;;;;;;;;;;20904637;28;20242;-67
2023/10/26 10:54:10;;;;;;;1.57;1.47;;;;;;;;;;20921548;28;20294;-68
2023/10/26 11:04:32;;;;;;;1.60;1.43;;;;;;;;;;20920509;28;20250;-67
2023/10/26 11:14:51;;;;;;;1.40;1.30;;;;;;;;;;20919421;28;20570;-67
2023/10/26 11:24:53;;;;;;;1.77;1.37;;;;;;;;;;20919760;28;20318;-67
2023/10/26 11:35:08;;;;;;;1.70;1.60;;;;;;;;;;20919279;28;20570;-67
2023/10/26 11:45:11;;;;;;;2.10;1.90;;;;;;;;;;20918282;28;20232;-67
2023/10/26 11:55:14;;;;;;;2.73;2.20;;;;;;;;;;20918176;28;20327;-68
2023/10/26 12:05:20;;;;;;;4.13;2.50;;;;;;;;;;20917406;28;20244;-68
2023/10/26 12:15:23;;;;;;;3.43;2.03;;;;;;;;;;20916175;28;20235;-68
2023/10/26 12:25:25;;;;;;;2.80;1.73;;;;;;;;;;20915157;28;20228;-67
2023/10/26 12:35:27;;;;;;;6.27;2.20;;;;;;;;;;20913609;28;20211;-68
2023/10/26 12:45:30;;;;;;;4.20;1.97;;;;;;;;;;20913819;28;20275;-68
2023/10/26 12:55:34;;;;;;;2.47;1.70;;;;;;;;;;20912913;28;20208;-68
2023/10/26 13:05:37;;;;;;;2.30;1.60;;;;;;;;;;20912366;28;20630;-68
2023/10/26 13:15:40;;;;;;;4.20;1.60;;;;;;;;;;20912653;28;20223;-68
2023/10/26 13:25:43;;;;;;;4.23;1.50;;;;;;;;;;20894214;28;20285;-70
2023/10/26 13:35:45;;;;;;;1.77;1.30;;;;;;;;;;20944254;28;20240;-68
2023/10/26 13:45:47;;;;;;;2.67;1.50;;;;;;;;;;20993492;28;20284;-67
2023/10/26 13:55:50;;;;;;;1.63;1.30;;;;;;;;;;20993181;28;20558;-64
2023/10/26 14:05:52;;;;;;;2.13;1.70;;;;;;;;;;20990676;28;20672;-69
2023/10/26 14:15:54;;;;;;;4.63;1.87;;;;;;;;;;21006407;28;20237;-69
2023/10/26 14:25:57;;;;;;;1.40;1.30;;;;;;;;;;21007701;28;20227;-65
2023/10/26 14:35:59;;;;;;;1.30;1.20;;;;;;;;;;21006443;28;20215;-67
2023/10/26 14:46:01;;;;;;;2.60;1.50;;;;;;;;;;21006169;28;20273;-70
2023/10/26 14:56:04;;;;;;;2.20;1.70;;;;;;;;;;21005093;28;20218;-65
2023/10/26 15:06:06;;;;;;;3.70;2.80;;;;;;;;;;21004334;28;20702;-68
2023/10/26 15:16:08;;;;;;;4.80;2.20;;;;;;;;;;21003569;28;20291;-66
2023/10/26 15:26:11;;;;;;;3.97;2.37;;;;;;;;;;21001998;28;20231;-68
2023/10/26 15:36:13;;;;;;;3.60;1.60;;;;;;;;;;21002234;28;20659;-71
2023/10/26 15:46:15;;;;;;;4.37;2.00;;;;;;;;;;21001368;28;20754;-78
2023/10/26 15:56:17;;;;;;;4.10;1.97;;;;;;;;;;21000686;28;20207;-75
2023/10/26 16:06:19;;;;;;;3.90;1.87;;;;;;;;;;20999418;28;20250;-71
2023/10/26 16:16:21;;;;;;;3.03;2.10;;;;;;;;;;20999065;28;20208;-70
2023/10/26 16:26:24;;;;;;;8.23;2.70;;;;;;;;;;20998215;28;20244;-68
2023/10/26 16:36:26;;;;;;;4.23;2.10;;;;;;;;;;20996699;28;20209;-67
2023/10/26 16:46:28;;;;;;;6.83;2.97;;;;;;;;;;20996954;28;20227;-65
2023/10/26 16:56:30;;;;;;;4.10;2.40;;;;;;;;;;20996191;28;20213;-67
2023/10/26 17:06:32;;;;;;;6.00;2.30;;;;;;;;;;20995425;28;20249;-65
2023/10/26 17:16:35;;;;;;;5.97;2.37;;;;;;;;;;20995643;28;20699;-68
2023/10/26 17:26:37;;;;;;;8.43;3.63;;;;;;;;;;20994593;28;20247;-67
2023/10/26 17:36:39;;;;;;;6.00;2.90;;;;;;;;;;20993855;28;20209;-67
2023/10/26 17:46:42;;;;;;;11.30;3.20;;;;;;;;;;20998597;28;20235;-65
2023/10/26 17:56:44;;;;;;;8.10;3.80;;;;;;;;;;21010373;28;20596;-68
2023/10/26 18:06:47;;;;;;;6.70;3.17;;;;;;;;;;21009103;28;20243;-71
2023/10/26 18:16:49;;;;;;;5.57;3.10;;;;;;;;;;20989410;28;20230;-67
2023/10/26 18:26:55;;;;;;;8.57;3.30;;;;;;;;;;21021595;28;20230;-67
2023/10/26 18:36:57;;;;;;;9.17;4.13;;;;;;;;;;21088804;28;20233;-69
2023/10/26 18:46:59;;;;;;;9.27;4.40;;;;;;;;;;21088677;28;20238;-69
2023/10/26 18:57:03;;;;;;;10.00;4.30;;;;;;;;;;21086571;28;20647;-70
2023/10/26 19:07:05;;;;;;;7.20;4.20;;;;;;;;;;21086762;28;20307;-70
2023/10/26 19:17:09;;;;;;;9.30;3.37;;;;;;;;;;21086516;28;20204;-71
2023/10/26 19:27:11;;;;;;;6.17;3.10;;;;;;;;;;21085015;28;20295;-68
2023/10/26 19:37:14;;;;;;;13.87;4.33;;;;;;;;;;21084381;28;20308;-69
2023/10/26 19:47:16;;;;;;;6.57;3.40;;;;;;;;;;21084074;28;20242;-69
2023/10/26 19:57:19;;;;;;;4.20;2.60;;;;;;;;;;21065177;28;20302;-69
2023/10/26 20:07:21;;;;;;;4.40;2.33;;;;;;;;;;20999378;28;20733;-68
2023/10/26 20:17:23;;;;;;;4.47;2.27;;;;;;;;;;20999384;28;20212;-69
2023/10/26 20:27:25;;;;;;;6.90;2.63;;;;;;;;;;20998163;28;20231;-68
2023/10/26 20:37:27;;;;;;;5.23;2.60;;;;;;;;;;20997118;28;20204;-68
2023/10/26 20:47:29;;;;;;;6.97;2.40;;;;;;;;;;20996760;28;20245;-69
2023/10/26 20:57:32;;;;;;;7.37;2.30;;;;;;;;;;20995646;28;20211;-70
2023/10/26 21:07:35;;;;;;;5.97;2.03;;;;;;;;;;20995844;28;20247;-69
2023/10/26 21:17:37;;;;;;;8.80;2.20;;;;;;;;;;20995408;28;20199;-69
2023/10/26 21:27:39;;;;;;;9.47;2.37;;;;;;;;;;20994770;28;20237;-69
2023/10/26 21:37:41;;;;;;;6.30;2.00;;;;;;;;;;20994546;28;20242;-70
2023/10/26 21:47:43;;;;;;;5.37;2.23;;;;;;;;;;20994647;28;20322;-69
2023/10/26 22:05:45;;;;;;;7.80;2.30;;;;;;;;;;21067994;28;20922;-69
2023/10/26 22:15:48;;;;;;;9.20;2.33;;;;;;;;;;21067553;28;20207;-69
2023/10/26 22:25:57;;;;;;;8.33;2.30;;;;;;;;;;21066647;28;20628;-69
2023/10/26 22:35:59;;;;;;;7.97;2.50;;;;;;;;;;21065630;28;20206;-68
2023/10/26 22:46:01;;;;;;;7.20;2.23;;;;;;;;;;21065276;28;20576;-67
2023/10/26 22:56:03;;;;;;;13.33;2.53;;;;;;;;;;21063870;28;20725;-69
2023/10/26 23:06:05;;;;;;;11.03;2.10;;;;;;;;;;21063412;28;20546;-69
2023/10/26 23:16:08;;;;;;;8.50;2.60;;;;;;;;;;21012780;28;20232;-69
2023/10/26 23:26:10;;;;;;;13.37;2.80;;;;;;;;;;21007103;28;20212;-70
2023/10/26 23:36:12;;;;;;;7.70;2.50;;;;;;;;;;21004406;28;20233;-69
2023/10/26 23:46:15;;;;;;;9.33;2.40;;;;;;;;;;21004974;28;20219;-69
2023/10/26 23:56:17;;;;;;;6.17;2.40;;;;;;;;;;21003396;28;20233;-69
